This is the latest recevied weather packets stored in our database for station/object OK1FCB-1. If no packets are shown the sender has not sent any weather packets the latest 10 day(s).
| Time | Temp. | Humidity | Pressure | Rain* | Wind** | Luminosity | Snow |
|---|---|---|---|---|---|---|---|
| 1777506921 | -0.56° C | 52% | 1035.2 hPa | - | - | - | - |
| 1777506022 | -1.67° C | 55% | 1035.1 hPa | - | - | - | - |
| 1777500646 | 1.11° C | 48% | 1034.9 hPa | - | - | - | - |
| 1777499748 | 0.56° C | 50% | 1034.7 hPa | - | - | - | - |
| 1777499742 | 0.56° C | 50% | 1034.7 hPa | - | - | - | - |
| 1777498850 | 0° C | 51% | 1034.5 hPa | - | - | - | - |
| 1777497056 | 1.11° C | 46% | 1034.4 hPa | - | - | - | - |
| 1777497051 | 1.11° C | 46% | 1034.4 hPa | - | - | - | - |
| 1777496158 | 0.56° C | 45% | 1034.4 hPa | - | - | - | - |
| 1777496153 | 0.56° C | 45% | 1034.4 hPa | - | - | - | - |
| 1777495260 | 1.11° C | 44% | 1034.3 hPa | - | - | - | - |
| 1777495255 | 1.11° C | 44% | 1034.3 hPa | - | - | - | - |
| 1777493466 | 2.22° C | 43% | 1034.1 hPa | - | - | - | - |
| 1777493460 | 2.22° C | 43% | 1034.1 hPa | - | - | - | - |
| 1777492563 | 2.22° C | 41% | 1034 hPa | - | - | - | - |
| 1777490776 | 4.44° C | 38% | 1033.6 hPa | - | - | - | - |
| 1777490771 | 4.44° C | 38% | 1033.6 hPa | - | - | - | - |
| 1777487189 | 6.67° C | 34% | 1032.9 hPa | - | - | - | - |
| 1777485389 | 7.78° C | 32% | 1032.5 hPa | - | - | - | - |
| 1777482712 | 15° C | 26% | 1031.7 hPa | - | - | - | - |
| 1777481824 | 16.11° C | 24% | 1031.7 hPa | - | - | - | - |
| 1777481819 | 16.11° C | 24% | 1031.7 hPa | - | - | - | - |
| 1777480929 | 17.22° C | 23% | 1031.5 hPa | - | - | - | - |
| 1777480923 | 17.22° C | 23% | 1031.5 hPa | - | - | - | - |
| 1777479131 | 18.89° C | 22% | 1031.4 hPa | - | - | - | - |
* Rain since midnight (hover to see other rain measurements)
** Current wind speed in m/s (hover to see current wind gust speed)